sensor_id;sensor_type;location;lat;lon;timestamp;P1;durP1;ratioP1;P2;durP2;ratioP2
55037;SDS011;40937;53.594;10.034;2023-06-04T00:01:10;11.60;;;3.35;;
55037;SDS011;40937;53.594;10.034;2023-06-04T00:03:38;8.57;;;2.95;;
55037;SDS011;40937;53.594;10.034;2023-06-04T00:06:05;2.92;;;2.60;;
55037;SDS011;40937;53.594;10.034;2023-06-04T00:08:33;5.45;;;2.78;;
55037;SDS011;40937;53.594;10.034;2023-06-04T00:11:01;3.55;;;2.90;;
55037;SDS011;40937;53.594;10.034;2023-06-04T00:13:28;8.85;;;3.55;;
55037;SDS011;40937;53.594;10.034;2023-06-04T00:15:55;6.47;;;2.55;;
55037;SDS011;40937;53.594;10.034;2023-06-04T00:18:22;5.53;;;2.95;;
55037;SDS011;40937;53.594;10.034;2023-06-04T00:20:50;4.63;;;2.70;;
55037;SDS011;40937;53.594;10.034;2023-06-04T00:23:17;6.18;;;3.10;;
55037;SDS011;40937;53.594;10.034;2023-06-04T00:25:45;3.05;;;2.75;;
55037;SDS011;40937;53.594;10.034;2023-06-04T00:28:15;4.60;;;2.80;;
55037;SDS011;40937;53.594;10.034;2023-06-04T00:30:42;11.00;;;3.00;;
55037;SDS011;40937;53.594;10.034;2023-06-04T00:33:10;3.78;;;3.28;;
55037;SDS011;40937;53.594;10.034;2023-06-04T00:35:37;4.93;;;3.42;;
55037;SDS011;40937;53.594;10.034;2023-06-04T00:38:04;2.97;;;2.65;;
55037;SDS011;40937;53.594;10.034;2023-06-04T00:40:31;4.78;;;3.00;;
55037;SDS011;40937;53.594;10.034;2023-06-04T00:43:00;2.95;;;2.75;;
55037;SDS011;40937;53.594;10.034;2023-06-04T00:45:27;4.93;;;3.15;;
55037;SDS011;40937;53.594;10.034;2023-06-04T00:47:56;3.83;;;3.08;;
55037;SDS011;40937;53.594;10.034;2023-06-04T00:50:24;3.28;;;3.05;;
55037;SDS011;40937;53.594;10.034;2023-06-04T00:52:51;7.68;;;3.10;;
55037;SDS011;40937;53.594;10.034;2023-06-04T00:55:18;3.47;;;2.75;;
55037;SDS011;40937;53.594;10.034;2023-06-04T00:57:46;4.55;;;2.97;;
55037;SDS011;40937;53.594;10.034;2023-06-04T01:00:15;5.55;;;3.10;;
55037;SDS011;40937;53.594;10.034;2023-06-04T01:02:42;4.13;;;3.10;;
55037;SDS011;40937;53.594;10.034;2023-06-04T01:05:16;5.10;;;3.13;;
55037;SDS011;40937;53.594;10.034;2023-06-04T01:07:50;3.00;;;2.80;;
55037;SDS011;40937;53.594;10.034;2023-06-04T01:10:19;4.35;;;3.30;;
55037;SDS011;40937;53.594;10.034;2023-06-04T01:12:48;3.53;;;3.22;;
55037;SDS011;40937;53.594;10.034;2023-06-04T01:15:16;4.20;;;3.08;;
55037;SDS011;40937;53.594;10.034;2023-06-04T01:17:44;4.80;;;3.35;;
55037;SDS011;40937;53.594;10.034;2023-06-04T01:20:23;6.05;;;3.25;;
55037;SDS011;40937;53.594;10.034;2023-06-04T01:25:50;3.45;;;3.13;;
55037;SDS011;40937;53.594;10.034;2023-06-04T01:28:18;4.75;;;3.13;;
55037;SDS011;40937;53.594;10.034;2023-06-04T01:30:48;5.38;;;3.15;;
55037;SDS011;40937;53.594;10.034;2023-06-04T01:33:16;3.42;;;3.13;;
55037;SDS011;40937;53.594;10.034;2023-06-04T01:35:47;6.20;;;3.90;;
55037;SDS011;40937;53.594;10.034;2023-06-04T01:38:15;3.80;;;3.50;;
55037;SDS011;40937;53.594;10.034;2023-06-04T01:40:43;11.18;;;3.97;;
55037;SDS011;40937;53.594;10.034;2023-06-04T01:43:10;6.95;;;4.07;;
55037;SDS011;40937;53.594;10.034;2023-06-04T01:45:37;4.20;;;3.50;;
55037;SDS011;40937;53.594;10.034;2023-06-04T01:48:06;5.70;;;3.35;;
55037;SDS011;40937;53.594;10.034;2023-06-04T01:50:33;5.53;;;4.03;;
55037;SDS011;40937;53.594;10.034;2023-06-04T01:53:00;9.98;;;4.30;;
55037;SDS011;40937;53.594;10.034;2023-06-04T01:55:28;6.43;;;4.18;;
55037;SDS011;40937;53.594;10.034;2023-06-04T01:57:58;8.70;;;5.15;;
55037;SDS011;40937;53.594;10.034;2023-06-04T02:00:26;6.20;;;5.60;;
55037;SDS011;40937;53.594;10.034;2023-06-04T02:02:53;10.13;;;7.00;;
55037;SDS011;40937;53.594;10.034;2023-06-04T02:05:23;14.88;;;8.02;;
55037;SDS011;40937;53.594;10.034;2023-06-04T02:07:50;8.82;;;7.78;;
55037;SDS011;40937;53.594;10.034;2023-06-04T02:10:18;12.98;;;9.75;;
55037;SDS011;40937;53.594;10.034;2023-06-04T02:12:55;12.43;;;8.57;;
55037;SDS011;40937;53.594;10.034;2023-06-04T02:15:24;12.27;;;9.25;;
55037;SDS011;40937;53.594;10.034;2023-06-04T02:17:53;12.85;;;9.35;;
55037;SDS011;40937;53.594;10.034;2023-06-04T02:20:25;8.95;;;8.15;;
55037;SDS011;40937;53.594;10.034;2023-06-04T02:22:53;9.15;;;7.53;;
55037;SDS011;40937;53.594;10.034;2023-06-04T02:25:21;12.55;;;9.23;;
55037;SDS011;40937;53.594;10.034;2023-06-04T02:27:49;10.63;;;9.02;;
55037;SDS011;40937;53.594;10.034;2023-06-04T02:30:16;11.38;;;10.23;;
55037;SDS011;40937;53.594;10.034;2023-06-04T02:32:43;10.95;;;9.95;;
55037;SDS011;40937;53.594;10.034;2023-06-04T02:35:10;12.02;;;10.70;;
55037;SDS011;40937;53.594;10.034;2023-06-04T02:37:39;10.52;;;9.52;;
55037;SDS011;40937;53.594;10.034;2023-06-04T02:40:07;11.55;;;8.93;;
55037;SDS011;40937;53.594;10.034;2023-06-04T02:42:35;13.00;;;8.25;;
55037;SDS011;40937;53.594;10.034;2023-06-04T02:45:02;9.93;;;7.30;;
55037;SDS011;40937;53.594;10.034;2023-06-04T02:47:30;8.88;;;8.00;;
55037;SDS011;40937;53.594;10.034;2023-06-04T02:49:57;8.85;;;7.60;;
55037;SDS011;40937;53.594;10.034;2023-06-04T02:52:24;8.07;;;7.25;;
55037;SDS011;40937;53.594;10.034;2023-06-04T02:54:53;8.18;;;6.22;;
55037;SDS011;40937;53.594;10.034;2023-06-04T02:57:22;6.90;;;6.30;;
55037;SDS011;40937;53.594;10.034;2023-06-04T02:59:50;6.75;;;6.15;;
55037;SDS011;40937;53.594;10.034;2023-06-04T03:02:17;6.32;;;5.75;;
55037;SDS011;40937;53.594;10.034;2023-06-04T03:04:44;6.20;;;5.70;;
55037;SDS011;40937;53.594;10.034;2023-06-04T03:07:16;8.20;;;5.47;;
55037;SDS011;40937;53.594;10.034;2023-06-04T03:09:46;6.75;;;5.22;;
55037;SDS011;40937;53.594;10.034;2023-06-04T03:12:18;7.43;;;6.65;;
55037;SDS011;40937;53.594;10.034;2023-06-04T03:14:45;9.73;;;6.20;;
55037;SDS011;40937;53.594;10.034;2023-06-04T03:17:12;5.38;;;4.97;;
55037;SDS011;40937;53.594;10.034;2023-06-04T03:19:40;6.18;;;5.65;;
55037;SDS011;40937;53.594;10.034;2023-06-04T03:22:08;7.88;;;5.78;;
55037;SDS011;40937;53.594;10.034;2023-06-04T03:24:39;9.13;;;5.60;;
55037;SDS011;40937;53.594;10.034;2023-06-04T03:27:07;7.13;;;5.70;;
55037;SDS011;40937;53.594;10.034;2023-06-04T03:29:38;8.27;;;6.15;;
55037;SDS011;40937;53.594;10.034;2023-06-04T03:32:07;5.22;;;4.60;;
55037;SDS011;40937;53.594;10.034;2023-06-04T03:34:35;9.13;;;4.88;;
55037;SDS011;40937;53.594;10.034;2023-06-04T03:37:03;6.13;;;4.72;;
55037;SDS011;40937;53.594;10.034;2023-06-04T03:39:31;4.93;;;4.47;;
55037;SDS011;40937;53.594;10.034;2023-06-04T03:42:01;4.85;;;3.97;;
55037;SDS011;40937;53.594;10.034;2023-06-04T03:44:29;7.00;;;4.15;;
55037;SDS011;40937;53.594;10.034;2023-06-04T03:46:58;5.63;;;4.40;;
55037;SDS011;40937;53.594;10.034;2023-06-04T03:49:26;5.10;;;4.05;;
55037;SDS011;40937;53.594;10.034;2023-06-04T03:51:54;3.97;;;3.63;;
55037;SDS011;40937;53.594;10.034;2023-06-04T03:54:22;9.07;;;4.38;;
55037;SDS011;40937;53.594;10.034;2023-06-04T03:56:50;4.22;;;3.72;;
55037;SDS011;40937;53.594;10.034;2023-06-04T03:59:19;6.05;;;4.20;;
55037;SDS011;40937;53.594;10.034;2023-06-04T04:01:47;3.80;;;3.50;;
55037;SDS011;40937;53.594;10.034;2023-06-04T04:04:16;4.97;;;3.58;;
55037;SDS011;40937;53.594;10.034;2023-06-04T04:06:44;4.15;;;3.80;;
55037;SDS011;40937;53.594;10.034;2023-06-04T04:09:11;4.00;;;3.70;;
55037;SDS011;40937;53.594;10.034;2023-06-04T04:11:41;5.28;;;3.83;;
55037;SDS011;40937;53.594;10.034;2023-06-04T04:14:08;5.40;;;3.50;;
55037;SDS011;40937;53.594;10.034;2023-06-04T04:16:35;4.13;;;3.72;;
55037;SDS011;40937;53.594;10.034;2023-06-04T04:19:03;7.40;;;3.63;;
55037;SDS011;40937;53.594;10.034;2023-06-04T04:21:36;8.30;;;4.00;;
55037;SDS011;40937;53.594;10.034;2023-06-04T04:24:04;5.97;;;3.15;;
55037;SDS011;40937;53.594;10.034;2023-06-04T04:26:33;3.90;;;3.50;;
55037;SDS011;40937;53.594;10.034;2023-06-04T04:29:00;7.15;;;3.50;;
55037;SDS011;40937;53.594;10.034;2023-06-04T04:31:30;11.13;;;3.70;;
55037;SDS011;40937;53.594;10.034;2023-06-04T04:34:01;5.47;;;3.40;;
55037;SDS011;40937;53.594;10.034;2023-06-04T04:36:33;6.40;;;3.20;;
55037;SDS011;40937;53.594;10.034;2023-06-04T04:39:03;7.50;;;2.90;;
55037;SDS011;40937;53.594;10.034;2023-06-04T04:41:33;5.70;;;3.20;;
55037;SDS011;40937;53.594;10.034;2023-06-04T04:44:02;3.85;;;3.08;;
55037;SDS011;40937;53.594;10.034;2023-06-04T04:46:30;3.20;;;2.95;;
55037;SDS011;40937;53.594;10.034;2023-06-04T04:48:57;5.93;;;2.70;;
55037;SDS011;40937;53.594;10.034;2023-06-04T04:51:25;5.65;;;3.17;;
55037;SDS011;40937;53.594;10.034;2023-06-04T04:53:53;4.18;;;3.00;;
55037;SDS011;40937;53.594;10.034;2023-06-04T04:56:23;2.72;;;2.50;;
55037;SDS011;40937;53.594;10.034;2023-06-04T04:58:52;5.25;;;3.00;;
55037;SDS011;40937;53.594;10.034;2023-06-04T05:01:20;6.95;;;3.13;;
55037;SDS011;40937;53.594;10.034;2023-06-04T05:06:16;6.18;;;3.10;;
55037;SDS011;40937;53.594;10.034;2023-06-04T05:08:44;3.50;;;3.00;;
55037;SDS011;40937;53.594;10.034;2023-06-04T05:11:13;3.95;;;2.85;;
55037;SDS011;40937;53.594;10.034;2023-06-04T05:13:43;9.68;;;2.60;;
55037;SDS011;40937;53.594;10.034;2023-06-04T05:16:12;11.80;;;3.20;;
55037;SDS011;40937;53.594;10.034;2023-06-04T05:18:41;3.15;;;2.60;;
55037;SDS011;40937;53.594;10.034;2023-06-04T05:21:12;4.95;;;3.05;;
55037;SDS011;40937;53.594;10.034;2023-06-04T05:23:46;5.85;;;3.65;;
55037;SDS011;40937;53.594;10.034;2023-06-04T05:26:15;6.00;;;2.80;;
55037;SDS011;40937;53.594;10.034;2023-06-04T05:28:45;5.63;;;2.80;;
55037;SDS011;40937;53.594;10.034;2023-06-04T05:31:14;5.80;;;3.22;;
55037;SDS011;40937;53.594;10.034;2023-06-04T05:33:41;3.70;;;2.60;;
55037;SDS011;40937;53.594;10.034;2023-06-04T05:36:13;4.22;;;2.63;;
55037;SDS011;40937;53.594;10.034;2023-06-04T05:38:47;4.93;;;2.20;;
55037;SDS011;40937;53.594;10.034;2023-06-04T05:41:23;6.60;;;3.20;;
55037;SDS011;40937;53.594;10.034;2023-06-04T05:43:53;6.43;;;2.80;;
55037;SDS011;40937;53.594;10.034;2023-06-04T05:46:20;14.23;;;3.50;;
55037;SDS011;40937;53.594;10.034;2023-06-04T05:48:48;6.35;;;3.33;;
55037;SDS011;40937;53.594;10.034;2023-06-04T05:51:19;6.40;;;3.10;;
55037;SDS011;40937;53.594;10.034;2023-06-04T05:53:47;7.82;;;3.08;;
55037;SDS011;40937;53.594;10.034;2023-06-04T05:56:15;8.05;;;3.55;;
55037;SDS011;40937;53.594;10.034;2023-06-04T05:58:43;5.80;;;2.85;;
55037;SDS011;40937;53.594;10.034;2023-06-04T06:01:12;8.73;;;2.95;;
55037;SDS011;40937;53.594;10.034;2023-06-04T06:03:42;9.93;;;2.83;;
55037;SDS011;40937;53.594;10.034;2023-06-04T06:06:09;8.90;;;3.08;;
55037;SDS011;40937;53.594;10.034;2023-06-04T06:08:38;7.10;;;3.20;;
55037;SDS011;40937;53.594;10.034;2023-06-04T06:11:06;8.80;;;3.03;;
55037;SDS011;40937;53.594;10.034;2023-06-04T06:13:33;6.65;;;3.15;;
55037;SDS011;40937;53.594;10.034;2023-06-04T06:16:01;6.03;;;2.50;;
55037;SDS011;40937;53.594;10.034;2023-06-04T06:18:30;5.80;;;2.30;;
55037;SDS011;40937;53.594;10.034;2023-06-04T06:21:00;8.50;;;2.88;;
55037;SDS011;40937;53.594;10.034;2023-06-04T06:23:28;5.90;;;2.65;;
55037;SDS011;40937;53.594;10.034;2023-06-04T06:25:56;7.35;;;2.65;;
55037;SDS011;40937;53.594;10.034;2023-06-04T06:28:28;5.60;;;2.47;;
55037;SDS011;40937;53.594;10.034;2023-06-04T06:30:56;5.97;;;2.50;;
55037;SDS011;40937;53.594;10.034;2023-06-04T06:33:23;5.68;;;2.70;;
55037;SDS011;40937;53.594;10.034;2023-06-04T06:35:51;4.93;;;2.72;;
55037;SDS011;40937;53.594;10.034;2023-06-04T06:38:20;6.85;;;2.70;;
55037;SDS011;40937;53.594;10.034;2023-06-04T06:40:47;8.20;;;3.20;;
55037;SDS011;40937;53.594;10.034;2023-06-04T06:43:14;7.15;;;2.85;;
55037;SDS011;40937;53.594;10.034;2023-06-04T06:45:42;6.93;;;2.50;;
55037;SDS011;40937;53.594;10.034;2023-06-04T06:48:09;4.20;;;2.28;;
55037;SDS011;40937;53.594;10.034;2023-06-04T06:50:36;11.80;;;2.50;;
55037;SDS011;40937;53.594;10.034;2023-06-04T06:53:05;5.80;;;2.63;;
55037;SDS011;40937;53.594;10.034;2023-06-04T06:55:32;4.03;;;2.35;;
55037;SDS011;40937;53.594;10.034;2023-06-04T06:57:59;8.05;;;2.90;;
55037;SDS011;40937;53.594;10.034;2023-06-04T07:00:26;3.50;;;2.38;;
55037;SDS011;40937;53.594;10.034;2023-06-04T07:02:54;4.90;;;2.45;;
55037;SDS011;40937;53.594;10.034;2023-06-04T07:05:21;4.63;;;2.53;;
55037;SDS011;40937;53.594;10.034;2023-06-04T07:07:48;8.98;;;2.83;;
55037;SDS011;40937;53.594;10.034;2023-06-04T07:10:17;7.30;;;2.38;;
55037;SDS011;40937;53.594;10.034;2023-06-04T07:12:44;6.72;;;2.65;;
55037;SDS011;40937;53.594;10.034;2023-06-04T07:15:11;8.55;;;2.45;;
55037;SDS011;40937;53.594;10.034;2023-06-04T07:17:38;7.15;;;2.55;;
55037;SDS011;40937;53.594;10.034;2023-06-04T07:20:06;7.70;;;2.70;;
55037;SDS011;40937;53.594;10.034;2023-06-04T07:22:35;4.78;;;2.55;;
55037;SDS011;40937;53.594;10.034;2023-06-04T07:25:02;2.45;;;1.85;;
55037;SDS011;40937;53.594;10.034;2023-06-04T07:27:31;9.88;;;3.28;;
55037;SDS011;40937;53.594;10.034;2023-06-04T07:29:58;6.70;;;2.90;;
55037;SDS011;40937;53.594;10.034;2023-06-04T07:32:25;5.65;;;2.40;;
55037;SDS011;40937;53.594;10.034;2023-06-04T07:34:53;9.15;;;2.78;;
55037;SDS011;40937;53.594;10.034;2023-06-04T07:37:20;5.18;;;3.15;;
55037;SDS011;40937;53.594;10.034;2023-06-04T07:39:47;3.53;;;2.17;;
55037;SDS011;40937;53.594;10.034;2023-06-04T07:42:15;6.00;;;2.20;;
55037;SDS011;40937;53.594;10.034;2023-06-04T07:44:43;7.25;;;2.13;;
55037;SDS011;40937;53.594;10.034;2023-06-04T07:47:10;6.25;;;2.55;;
55037;SDS011;40937;53.594;10.034;2023-06-04T07:49:38;8.45;;;2.58;;
55037;SDS011;40937;53.594;10.034;2023-06-04T07:52:05;4.32;;;2.53;;
55037;SDS011;40937;53.594;10.034;2023-06-04T07:54:32;6.40;;;2.58;;
55037;SDS011;40937;53.594;10.034;2023-06-04T07:57:00;2.50;;;1.92;;
55037;SDS011;40937;53.594;10.034;2023-06-04T07:59:27;6.20;;;3.05;;
55037;SDS011;40937;53.594;10.034;2023-06-04T08:01:57;4.43;;;2.80;;
55037;SDS011;40937;53.594;10.034;2023-06-04T08:04:24;4.20;;;2.30;;
55037;SDS011;40937;53.594;10.034;2023-06-04T08:06:52;5.80;;;2.50;;
55037;SDS011;40937;53.594;10.034;2023-06-04T08:09:20;5.95;;;2.47;;
55037;SDS011;40937;53.594;10.034;2023-06-04T08:11:48;5.13;;;2.30;;
55037;SDS011;40937;53.594;10.034;2023-06-04T08:14:16;4.20;;;2.40;;
55037;SDS011;40937;53.594;10.034;2023-06-04T08:16:45;3.97;;;2.17;;
55037;SDS011;40937;53.594;10.034;2023-06-04T08:19:14;7.70;;;2.30;;
55037;SDS011;40937;53.594;10.034;2023-06-04T08:21:41;6.75;;;2.58;;
55037;SDS011;40937;53.594;10.034;2023-06-04T08:24:10;8.45;;;2.67;;
55037;SDS011;40937;53.594;10.034;2023-06-04T08:26:37;5.07;;;1.85;;
55037;SDS011;40937;53.594;10.034;2023-06-04T08:29:05;4.13;;;2.40;;
55037;SDS011;40937;53.594;10.034;2023-06-04T08:31:32;5.47;;;1.90;;
55037;SDS011;40937;53.594;10.034;2023-06-04T08:33:59;4.50;;;2.08;;
55037;SDS011;40937;53.594;10.034;2023-06-04T08:36:28;7.03;;;2.10;;
55037;SDS011;40937;53.594;10.034;2023-06-04T08:38:58;3.35;;;1.77;;
55037;SDS011;40937;53.594;10.034;2023-06-04T08:41:28;2.50;;;1.52;;
55037;SDS011;40937;53.594;10.034;2023-06-04T08:43:57;3.15;;;1.88;;
55037;SDS011;40937;53.594;10.034;2023-06-04T08:46:27;3.75;;;2.08;;
55037;SDS011;40937;53.594;10.034;2023-06-04T08:48:55;4.18;;;2.22;;
55037;SDS011;40937;53.594;10.034;2023-06-04T08:51:27;5.25;;;1.88;;
55037;SDS011;40937;53.594;10.034;2023-06-04T08:53:58;2.23;;;1.60;;
55037;SDS011;40937;53.594;10.034;2023-06-04T08:56:35;4.80;;;1.73;;
55037;SDS011;40937;53.594;10.034;2023-06-04T08:59:04;2.65;;;1.73;;
55037;SDS011;40937;53.594;10.034;2023-06-04T09:01:33;2.88;;;1.38;;
55037;SDS011;40937;53.594;10.034;2023-06-04T09:04:04;1.98;;;1.75;;
55037;SDS011;40937;53.594;10.034;2023-06-04T09:06:34;4.60;;;1.90;;
55037;SDS011;40937;53.594;10.034;2023-06-04T09:09:05;2.70;;;1.45;;
55037;SDS011;40937;53.594;10.034;2023-06-04T09:11:39;4.35;;;1.73;;
55037;SDS011;40937;53.594;10.034;2023-06-04T09:14:13;5.55;;;1.98;;
55037;SDS011;40937;53.594;10.034;2023-06-04T09:16:43;3.80;;;1.42;;
55037;SDS011;40937;53.594;10.034;2023-06-04T09:19:11;1.90;;;1.30;;
55037;SDS011;40937;53.594;10.034;2023-06-04T09:21:52;5.90;;;2.10;;
55037;SDS011;40937;53.594;10.034;2023-06-04T09:24:23;2.78;;;1.73;;
55037;SDS011;40937;53.594;10.034;2023-06-04T09:26:51;2.15;;;1.20;;
55037;SDS011;40937;53.594;10.034;2023-06-04T09:29:18;4.97;;;1.55;;
55037;SDS011;40937;53.594;10.034;2023-06-04T09:31:46;3.33;;;1.90;;
55037;SDS011;40937;53.594;10.034;2023-06-04T09:34:14;2.85;;;1.80;;
55037;SDS011;40937;53.594;10.034;2023-06-04T09:36:41;7.28;;;1.70;;
55037;SDS011;40937;53.594;10.034;2023-06-04T09:39:16;9.02;;;1.67;;
55037;SDS011;40937;53.594;10.034;2023-06-04T09:41:44;2.08;;;1.20;;
55037;SDS011;40937;53.594;10.034;2023-06-04T09:44:14;3.25;;;1.42;;
55037;SDS011;40937;53.594;10.034;2023-06-04T09:46:41;8.15;;;1.98;;
55037;SDS011;40937;53.594;10.034;2023-06-04T09:49:08;9.73;;;1.58;;
55037;SDS011;40937;53.594;10.034;2023-06-04T09:51:35;3.47;;;1.52;;
55037;SDS011;40937;53.594;10.034;2023-06-04T09:54:13;4.60;;;2.10;;
55037;SDS011;40937;53.594;10.034;2023-06-04T09:56:42;3.13;;;1.67;;
55037;SDS011;40937;53.594;10.034;2023-06-04T09:59:09;3.80;;;1.73;;
55037;SDS011;40937;53.594;10.034;2023-06-04T10:01:41;4.93;;;1.40;;
55037;SDS011;40937;53.594;10.034;2023-06-04T10:04:09;4.28;;;1.40;;
55037;SDS011;40937;53.594;10.034;2023-06-04T10:06:39;2.60;;;1.85;;
55037;SDS011;40937;53.594;10.034;2023-06-04T10:09:08;2.58;;;1.80;;
55037;SDS011;40937;53.594;10.034;2023-06-04T10:11:37;4.95;;;1.83;;
55037;SDS011;40937;53.594;10.034;2023-06-04T10:14:10;6.95;;;1.63;;
55037;SDS011;40937;53.594;10.034;2023-06-04T10:16:42;3.25;;;1.60;;
55037;SDS011;40937;53.594;10.034;2023-06-04T10:19:12;5.78;;;1.67;;
55037;SDS011;40937;53.594;10.034;2023-06-04T10:21:41;2.65;;;1.45;;
55037;SDS011;40937;53.594;10.034;2023-06-04T10:24:09;4.32;;;1.80;;
55037;SDS011;40937;53.594;10.034;2023-06-04T10:26:36;5.03;;;1.52;;
55037;SDS011;40937;53.594;10.034;2023-06-04T10:29:06;4.03;;;1.85;;
55037;SDS011;40937;53.594;10.034;2023-06-04T10:31:36;5.38;;;1.50;;
55037;SDS011;40937;53.594;10.034;2023-06-04T10:34:04;2.25;;;1.25;;
55037;SDS011;40937;53.594;10.034;2023-06-04T10:36:31;4.43;;;1.38;;
55037;SDS011;40937;53.594;10.034;2023-06-04T10:39:09;3.63;;;1.60;;
55037;SDS011;40937;53.594;10.034;2023-06-04T10:41:37;4.45;;;1.45;;
55037;SDS011;40937;53.594;10.034;2023-06-04T10:44:04;2.90;;;1.50;;
55037;SDS011;40937;53.594;10.034;2023-06-04T10:46:39;2.95;;;1.40;;
55037;SDS011;40937;53.594;10.034;2023-06-04T10:49:08;2.97;;;2.35;;
55037;SDS011;40937;53.594;10.034;2023-06-04T10:51:37;2.17;;;1.50;;
55037;SDS011;40937;53.594;10.034;2023-06-04T10:54:04;2.88;;;1.83;;
55037;SDS011;40937;53.594;10.034;2023-06-04T10:56:34;3.17;;;1.48;;
55037;SDS011;40937;53.594;10.034;2023-06-04T10:59:12;1.77;;;1.50;;
55037;SDS011;40937;53.594;10.034;2023-06-04T11:01:41;1.55;;;1.45;;
55037;SDS011;40937;53.594;10.034;2023-06-04T11:04:17;5.43;;;2.05;;
55037;SDS011;40937;53.594;10.034;2023-06-04T11:06:46;1.60;;;1.48;;
55037;SDS011;40937;53.594;10.034;2023-06-04T11:09:14;1.60;;;1.50;;
55037;SDS011;40937;53.594;10.034;2023-06-04T11:11:44;5.28;;;1.38;;
55037;SDS011;40937;53.594;10.034;2023-06-04T11:14:22;4.00;;;2.35;;
55037;SDS011;40937;53.594;10.034;2023-06-04T11:16:51;4.85;;;1.75;;
55037;SDS011;40937;53.594;10.034;2023-06-04T11:19:18;4.45;;;1.60;;
55037;SDS011;40937;53.594;10.034;2023-06-04T11:21:48;2.33;;;1.60;;
55037;SDS011;40937;53.594;10.034;2023-06-04T11:24:16;3.65;;;1.40;;
55037;SDS011;40937;53.594;10.034;2023-06-04T11:26:43;2.65;;;1.70;;
55037;SDS011;40937;53.594;10.034;2023-06-04T11:29:11;2.33;;;1.60;;
55037;SDS011;40937;53.594;10.034;2023-06-04T11:31:41;2.65;;;1.80;;
55037;SDS011;40937;53.594;10.034;2023-06-04T11:34:11;3.60;;;1.80;;
55037;SDS011;40937;53.594;10.034;2023-06-04T11:36:49;4.72;;;1.65;;
55037;SDS011;40937;53.594;10.034;2023-06-04T11:39:18;2.17;;;1.60;;
55037;SDS011;40937;53.594;10.034;2023-06-04T11:41:46;3.92;;;1.63;;
55037;SDS011;40937;53.594;10.034;2023-06-04T11:44:14;2.00;;;1.42;;
55037;SDS011;40937;53.594;10.034;2023-06-04T11:46:45;6.57;;;1.85;;
55037;SDS011;40937;53.594;10.034;2023-06-04T11:49:16;7.97;;;2.20;;
55037;SDS011;40937;53.594;10.034;2023-06-04T11:51:45;5.00;;;1.65;;
55037;SDS011;40937;53.594;10.034;2023-06-04T11:54:13;6.85;;;1.92;;
55037;SDS011;40937;53.594;10.034;2023-06-04T11:56:41;3.88;;;1.83;;
55037;SDS011;40937;53.594;10.034;2023-06-04T11:59:09;2.03;;;1.55;;
55037;SDS011;40937;53.594;10.034;2023-06-04T12:01:39;2.03;;;1.55;;
55037;SDS011;40937;53.594;10.034;2023-06-04T12:04:11;5.10;;;1.75;;
55037;SDS011;40937;53.594;10.034;2023-06-04T12:06:49;2.60;;;1.58;;
55037;SDS011;40937;53.594;10.034;2023-06-04T12:09:19;3.83;;;1.98;;
55037;SDS011;40937;53.594;10.034;2023-06-04T12:11:47;2.42;;;1.92;;
55037;SDS011;40937;53.594;10.034;2023-06-04T12:14:15;2.72;;;2.10;;
55037;SDS011;40937;53.594;10.034;2023-06-04T12:16:43;4.03;;;1.60;;
55037;SDS011;40937;53.594;10.034;2023-06-04T12:19:20;3.53;;;1.92;;
55037;SDS011;40937;53.594;10.034;2023-06-04T12:21:58;4.93;;;1.90;;
55037;SDS011;40937;53.594;10.034;2023-06-04T12:24:27;3.25;;;1.88;;
55037;SDS011;40937;53.594;10.034;2023-06-04T12:27:01;4.55;;;1.65;;
55037;SDS011;40937;53.594;10.034;2023-06-04T12:29:28;1.88;;;1.58;;
55037;SDS011;40937;53.594;10.034;2023-06-04T12:32:01;3.40;;;1.52;;
55037;SDS011;40937;53.594;10.034;2023-06-04T12:34:29;3.05;;;1.88;;
55037;SDS011;40937;53.594;10.034;2023-06-04T12:36:58;3.47;;;2.75;;
55037;SDS011;40937;53.594;10.034;2023-06-04T12:39:25;2.75;;;1.55;;
55037;SDS011;40937;53.594;10.034;2023-06-04T12:41:55;3.40;;;1.70;;
55037;SDS011;40937;53.594;10.034;2023-06-04T12:44:23;2.03;;;1.75;;
55037;SDS011;40937;53.594;10.034;2023-06-04T12:46:50;2.92;;;1.52;;
55037;SDS011;40937;53.594;10.034;2023-06-04T12:49:17;2.80;;;1.92;;
55037;SDS011;40937;53.594;10.034;2023-06-04T12:51:44;2.67;;;1.25;;
55037;SDS011;40937;53.594;10.034;2023-06-04T12:54:13;3.40;;;1.67;;
55037;SDS011;40937;53.594;10.034;2023-06-04T12:56:40;2.17;;;1.77;;
55037;SDS011;40937;53.594;10.034;2023-06-04T12:59:07;2.30;;;1.48;;
55037;SDS011;40937;53.594;10.034;2023-06-04T13:01:35;1.55;;;1.10;;
55037;SDS011;40937;53.594;10.034;2023-06-04T13:04:03;1.38;;;1.20;;
55037;SDS011;40937;53.594;10.034;2023-06-04T13:06:30;6.85;;;2.00;;
55037;SDS011;40937;53.594;10.034;2023-06-04T13:08:57;3.83;;;1.90;;
55037;SDS011;40937;53.594;10.034;2023-06-04T13:11:26;1.48;;;1.35;;
55037;SDS011;40937;53.594;10.034;2023-06-04T13:13:53;1.60;;;1.50;;
55037;SDS011;40937;53.594;10.034;2023-06-04T13:16:20;1.70;;;1.60;;
55037;SDS011;40937;53.594;10.034;2023-06-04T13:18:47;2.33;;;1.23;;
55037;SDS011;40937;53.594;10.034;2023-06-04T13:21:14;1.45;;;1.33;;
55037;SDS011;40937;53.594;10.034;2023-06-04T13:23:42;7.82;;;2.47;;
55037;SDS011;40937;53.594;10.034;2023-06-04T13:26:09;2.90;;;2.00;;
55037;SDS011;40937;53.594;10.034;2023-06-04T13:28:38;1.77;;;1.67;;
55037;SDS011;40937;53.594;10.034;2023-06-04T13:31:05;2.42;;;1.95;;
55037;SDS011;40937;53.594;10.034;2023-06-04T13:33:32;2.60;;;1.67;;
55037;SDS011;40937;53.594;10.034;2023-06-04T13:36:01;2.72;;;1.58;;
55037;SDS011;40937;53.594;10.034;2023-06-04T13:38:30;2.70;;;1.70;;
55037;SDS011;40937;53.594;10.034;2023-06-04T13:40:57;2.17;;;1.50;;
55037;SDS011;40937;53.594;10.034;2023-06-04T13:43:24;2.50;;;1.60;;
55037;SDS011;40937;53.594;10.034;2023-06-04T13:45:53;6.15;;;1.98;;
55037;SDS011;40937;53.594;10.034;2023-06-04T13:48:20;1.60;;;1.50;;
55037;SDS011;40937;53.594;10.034;2023-06-04T13:50:48;1.70;;;1.50;;
55037;SDS011;40937;53.594;10.034;2023-06-04T13:53:15;4.28;;;1.73;;
55037;SDS011;40937;53.594;10.034;2023-06-04T13:55:42;1.52;;;1.42;;
55037;SDS011;40937;53.594;10.034;2023-06-04T13:58:10;2.78;;;1.85;;
55037;SDS011;40937;53.594;10.034;2023-06-04T14:00:37;3.13;;;1.60;;
55037;SDS011;40937;53.594;10.034;2023-06-04T14:03:06;8.93;;;1.88;;
55037;SDS011;40937;53.594;10.034;2023-06-04T14:05:33;4.80;;;3.80;;
55037;SDS011;40937;53.594;10.034;2023-06-04T14:08:00;3.20;;;2.13;;
55037;SDS011;40937;53.594;10.034;2023-06-04T14:10:28;4.88;;;1.70;;
55037;SDS011;40937;53.594;10.034;2023-06-04T14:12:58;2.85;;;1.80;;
55037;SDS011;40937;53.594;10.034;2023-06-04T14:15:27;4.32;;;1.80;;
55037;SDS011;40937;53.594;10.034;2023-06-04T14:17:54;3.95;;;2.40;;
55037;SDS011;40937;53.594;10.034;2023-06-04T14:20:22;11.45;;;2.00;;
55037;SDS011;40937;53.594;10.034;2023-06-04T14:22:49;3.17;;;1.88;;
55037;SDS011;40937;53.594;10.034;2023-06-04T14:25:17;1.60;;;1.40;;
55037;SDS011;40937;53.594;10.034;2023-06-04T14:27:44;5.22;;;1.60;;
55037;SDS011;40937;53.594;10.034;2023-06-04T14:30:11;1.75;;;1.45;;
55037;SDS011;40937;53.594;10.034;2023-06-04T14:32:39;9.43;;;1.65;;
55037;SDS011;40937;53.594;10.034;2023-06-04T14:35:06;3.10;;;1.67;;
55037;SDS011;40937;53.594;10.034;2023-06-04T14:37:35;2.75;;;1.77;;
55037;SDS011;40937;53.594;10.034;2023-06-04T14:40:03;3.72;;;2.10;;
55037;SDS011;40937;53.594;10.034;2023-06-04T14:42:31;10.15;;;2.10;;
55037;SDS011;40937;53.594;10.034;2023-06-04T14:44:58;3.35;;;1.77;;
55037;SDS011;40937;53.594;10.034;2023-06-04T14:47:25;1.92;;;1.60;;